Time;durP1;ratioP1;P1;durP2;ratioP2;P2;SDS_P1;SDS_P2;PMS_P1;PMS_P2;Temp;Humidity;BMP_temperature;BMP_pressure;BME280_temperature;BME280_humidity;BME280_pressure;Samples;Min_cycle;Max_cycle;Signal;HPM_P1;HPM_P2
2023/01/27 00:00:15;;;;;;;;;6.00;4.00;;;;;7.19;65.04;102250.44;2543703;22;2736681;-83
2023/01/27 00:02:09;;;;;;;;;5.33;5.00;;;;;7.21;65.01;102255.66;2547116;22;2748168;-83
2023/01/27 00:03:26;;;;;;;;;8.17;5.00;;;;;7.19;64.93;102247.81;2556179;22;2746063;-84
2023/01/27 00:06:40;;;;;;;;;9.17;4.00;;;;;7.20;64.79;102248.69;2504599;22;2755440;-83
2023/01/27 00:08:39;;;;;;;;;4.50;4.50;;;;;7.18;65.28;102246.06;2529014;22;2745382;-83
2023/01/27 00:10:05;;;;;;;;;7.83;4.67;;;;;7.19;64.91;102249.53;2542904;22;2755439;-84
2023/01/27 00:14:31;;;;;;;;;4.00;4.00;;;;;7.15;64.38;102242.56;2529002;22;2752338;-84
2023/01/27 00:15:51;;;;;;;;;8.83;5.00;;;;;7.18;63.88;102247.81;2558272;22;2745001;-84
2023/01/27 00:17:45;;;;;;;;;8.67;4.67;;;;;7.14;64.63;102241.69;2543867;22;2739785;-84
2023/01/27 00:24:59;;;;;;;;;3.33;3.33;;;;;7.19;63.66;102247.81;2559410;22;2729382;-83
2023/01/27 00:26:24;;;;;;;;;5.50;4.00;;;;;7.20;63.85;102244.34;2556249;22;2746038;-83
2023/01/27 00:27:40;;;;;;;;;5.67;3.33;;;;;7.18;62.69;102248.69;2543640;22;2752326;-83
2023/01/27 00:28:53;;;;;;;;;6.67;5.17;;;;;7.18;63.48;102246.06;2517654;22;2749163;-84
2023/01/27 00:30:08;;;;;;;;;6.50;4.00;;;;;7.17;62.41;102241.69;2558021;22;2754409;-83
2023/01/27 00:34:36;;;;;;;;;5.67;5.67;;;;;7.16;63.60;102249.56;2558124;22;2745481;-84
2023/01/27 00:38:06;;;;;;;;;4.00;3.33;;;;;7.14;63.27;102241.69;2530742;22;2752326;-84
2023/01/27 00:39:35;;;;;;;;;8.50;4.17;;;;;7.13;63.04;102255.63;2528939;22;2748164;-84
2023/01/27 00:42:56;;;;;;;;;7.17;3.67;;;;;7.12;63.20;102245.16;2530829;22;2752318;-83
2023/01/27 00:44:12;;;;;;;;;7.17;5.50;;;;;7.14;63.37;102246.91;2539112;22;2745035;-83
2023/01/27 00:46:03;;;;;;;;;4.33;4.00;;;;;7.13;63.36;102249.53;2533746;22;2754367;-84
2023/01/27 00:47:17;;;;;;;;;5.00;3.33;;;;;7.16;63.45;102247.78;2554874;22;2739780;-83
2023/01/27 00:48:30;;;;;;;;;5.00;4.67;;;;;7.13;63.25;102246.91;2557742;22;2742940;-83
2023/01/27 00:49:50;;;;;;;;;4.67;2.17;;;;;7.16;63.39;102245.16;2545216;22;2750207;-83
2023/01/27 00:51:04;;;;;;;;;5.50;4.67;;;;;7.16;63.29;102246.94;2535989;22;2741891;-84
2023/01/27 00:52:17;;;;;;;;;5.83;4.67;;;;;7.14;63.72;102244.28;2534052;22;2747075;-83
2023/01/27 00:53:31;;;;;;;;;6.83;3.83;;;;;7.15;63.42;102237.31;2546350;22;2741925;-83
2023/01/27 00:55:19;;;;;;;;;5.83;4.83;;;;;7.17;63.12;102246.94;2556687;22;2746042;-84
2023/01/27 00:56:35;;;;;;;;;6.83;5.00;;;;;7.15;63.40;102239.94;2543852;22;2745001;-84
2023/01/27 00:57:48;;;;;;;;;4.00;4.00;;;;;7.16;63.96;102245.16;2547307;22;2748117;-83
2023/01/27 00:59:01;;;;;;;;;4.67;4.33;;;;;7.15;63.47;102247.78;2544294;22;2745057;-83
2023/01/27 01:00:15;;;;;;;;;5.50;4.50;;;;;7.14;63.23;102239.06;2546654;22;2754379;-83
2023/01/27 01:01:29;;;;;;;;;6.17;4.33;;;;;7.13;63.58;102239.94;2528504;22;2752290;-83
2023/01/27 01:02:42;;;;;;;;;7.00;4.00;;;;;7.12;63.26;102239.91;2543660;22;2754387;-83
2023/01/27 01:04:01;;;;;;;;;6.83;4.00;;;;;7.12;63.91;102238.19;2533562;22;2749189;-84
2023/01/27 01:05:37;;;;;;;;;5.00;4.83;;;;;7.12;63.50;102238.19;2548335;22;2748490;-83
2023/01/27 01:06:50;;;;;;;;;5.50;5.50;;;;;7.14;63.44;102239.06;2544782;22;2742957;-83
2023/01/27 01:08:38;;;;;;;;;;;;;;;;;;;;;
2023/01/27 01:12:26;;;;;;;;;7.50;4.50;;;;;7.19;63.28;102233.84;2526170;22;2751276;-83
2023/01/27 01:13:45;;;;;;;;;4.17;3.67;;;;;7.23;63.15;102255.69;2528450;22;2754437;-84
2023/01/27 01:15:34;;;;;;;;;4.50;3.33;;;;;7.19;63.08;102242.56;2545459;22;2740935;-84
2023/01/27 01:17:42;;;;;;;;;4.17;4.17;;;;;7.17;62.86;102232.97;2479458;22;2750204;-83
2023/01/27 01:18:41;;;;;;;;;3.83;2.00;;;;;7.16;63.78;102232.09;2545489;22;2754410;-84
2023/01/27 01:20:02;;;;;;;;;5.00;2.83;;;;;7.19;63.61;102242.56;2558893;22;2740844;-84
2023/01/27 01:21:38;;;;;;;;;4.33;4.00;;;;;7.22;63.37;102240.84;2515058;22;2754734;-84
2023/01/27 01:22:51;;;;;;;;;4.83;3.83;;;;;7.22;63.47;102236.50;2537654;22;2750244;-84
2023/01/27 01:24:35;;;;;;;;;3.67;3.67;;;;;7.24;63.38;102239.09;2515913;22;2731470;-85
2023/01/27 01:26:34;;;;;;;;;9.67;4.00;;;;;7.20;63.90;102231.25;2508134;22;2771037;-84
2023/01/27 01:28:01;;;;;;;;;5.33;3.00;;;;;7.24;63.68;102232.13;2519092;22;2746045;-84
2023/01/27 01:31:47;;;;;;;;;2.67;2.00;;;;;7.27;63.66;102234.78;2413535;23;2733571;-84
2023/01/27 01:35:08;;;;;;;;;5.17;4.00;;;;;7.27;63.58;102229.56;2541203;22;2741922;-84
2023/01/27 01:36:28;;;;;;;;;4.00;4.00;;;;;7.28;63.90;102225.19;2558319;22;2750247;-84
2023/01/27 01:37:41;;;;;;;;;7.50;5.00;;;;;7.28;63.47;102222.59;2543152;22;2742956;-84
2023/01/27 01:39:00;;;;;;;;;5.50;5.50;;;;;7.27;63.35;102220.81;2546074;22;2748606;-84
2023/01/27 01:40:13;;;;;;;;;7.17;4.67;;;;;7.25;63.27;102228.66;2557530;22;2755404;-83
2023/01/27 01:41:34;;;;;;;;;6.50;4.17;;;;;7.23;63.70;102219.94;2558783;22;2750204;-83
2023/01/27 01:43:02;;;;;;;;;6.67;4.00;;;;;7.26;63.67;102221.72;2558286;22;2754386;-84
2023/01/27 01:44:29;;;;;;;;;6.67;5.00;;;;;7.26;63.37;102227.78;2544572;22;2746048;-83
2023/01/27 01:45:47;;;;;;;;;6.00;4.67;;;;;7.26;63.10;102227.78;2549825;22;2754406;-83
2023/01/27 01:47:03;;;;;;;;;7.33;4.00;;;;;7.22;63.66;102222.53;2544445;22;2752323;-84
2023/01/27 01:49:14;;;;;;;;;;;;;;;;;;;;;
2023/01/27 01:50:41;;;;;;;;;5.83;4.67;;;;;7.20;63.77;102218.19;2556078;22;2736674;-84
2023/01/27 01:52:03;;;;;;;;;3.67;3.33;;;;;7.22;63.50;102212.97;2558614;22;2746038;-84
2023/01/27 01:53:17;;;;;;;;;7.50;4.50;;;;;7.20;63.34;102217.31;2559060;22;2741875;-83
2023/01/27 01:54:37;;;;;;;;;4.67;3.67;;;;;7.19;63.23;102219.03;2543825;22;2754407;-83
2023/01/27 01:55:57;;;;;;;;;8.00;4.00;;;;;7.19;63.36;102213.81;2535202;22;2748164;-84
2023/01/27 01:57:19;;;;;;;;;7.00;5.00;;;;;7.17;63.38;102223.41;2535121;22;2742956;-83
2023/01/27 01:58:40;;;;;;;;;5.83;4.50;;;;;7.16;62.75;102215.56;2549332;22;2742355;-85
2023/01/27 02:00:01;;;;;;;;;5.83;4.33;;;;;7.15;63.47;102214.66;2558064;22;2754737;-83
2023/01/27 02:02:06;;;;;;;;;6.50;4.83;;;;;7.14;63.73;102212.03;2544992;22;2746049;-84
2023/01/27 02:03:17;;;;;;;;;4.67;3.67;;;;;7.14;63.84;102212.91;2497756;22;2750228;-83
2023/01/27 02:04:35;;;;;;;;;5.75;5.25;;;;;7.15;63.06;102217.28;2535867;22;2748161;-83
2023/01/27 02:05:53;;;;;;;;;7.83;4.17;;;;;7.18;63.12;102221.66;2558406;22;2743950;-83
2023/01/27 02:07:12;;;;;;;;;6.50;3.67;;;;;7.17;62.86;102215.53;2557193;22;2754934;-84
2023/01/27 02:08:54;;;;;;;;;;;;;;;;;;;;;
2023/01/27 02:10:08;;;;;;;;;4.33;3.50;;;;;7.20;62.59;102218.19;2551235;22;2742359;-83
2023/01/27 02:11:40;;;;;;;;;4.33;3.50;;;;;7.20;62.48;102212.97;2543906;22;2746068;-84
2023/01/27 02:12:53;;;;;;;;;6.67;5.00;;;;;7.19;62.22;102219.03;2517456;22;3459038;-83
2023/01/27 02:14:06;;;;;;;;;6.17;4.00;;;;;7.20;62.90;102204.22;2544033;22;2743959;-83
2023/01/27 02:15:22;;;;;;;;;6.17;5.00;;;;;7.23;62.91;102217.34;2533847;22;2746050;-83
2023/01/27 02:16:38;;;;;;;;;3.33;3.17;;;;;7.23;62.66;102211.22;2547942;22;2745480;-83
2023/01/27 02:18:04;;;;;;;;;7.00;4.00;;;;;7.24;62.98;102213.84;2544317;22;2749226;-84
2023/01/27 02:19:52;;;;;;;;;4.50;4.00;;;;;7.19;63.33;102200.75;2549214;22;2754362;-83
2023/01/27 02:21:34;;;;;;;;;2.67;2.67;;;;;7.23;63.23;102203.38;2544104;22;2753349;-84
2023/01/27 02:23:33;;;;;;;;;6.67;4.17;;;;;7.26;63.29;102200.78;2544475;22;2752287;-84
2023/01/27 02:27:17;;;;;;;;;;;;;;;;;;;;;
2023/01/27 02:28:31;;;;;;;;;4.83;4.83;;;;;7.29;63.06;102203.38;2545855;22;2744017;-83
2023/01/27 02:29:48;;;;;;;;;6.33;4.00;;;;;7.27;62.84;102211.25;2557572;22;2749181;-83
2023/01/27 02:31:01;;;;;;;;;3.67;3.33;;;;;7.23;63.08;102193.78;2544587;22;2736731;-83
2023/01/27 02:32:34;;;;;;;;;6.67;4.33;;;;;7.25;62.43;102206.88;2533808;22;2746028;-83
2023/01/27 02:33:52;;;;;;;;;5.00;3.50;;;;;7.24;62.95;102197.25;2551796;22;2735648;-83
2023/01/27 02:35:10;;;;;;;;;6.33;4.67;;;;;7.21;61.98;102195.50;2544420;22;2746411;-83
2023/01/27 02:36:40;;;;;;;;;6.33;3.50;;;;;7.19;62.66;102195.50;2548655;22;2741911;-84
2023/01/27 02:38:25;;;;;;;;;;;;;;;;;;;;;
2023/01/27 02:39:42;;;;;;;;;6.17;4.33;;;;;7.16;62.93;102197.25;2551425;22;2752308;-83
2023/01/27 02:41:13;;;;;;;;;4.17;3.67;;;;;7.17;63.24;102194.63;2543350;22;2754858;-84
2023/01/27 02:42:32;;;;;;;;;3.83;3.00;;;;;7.18;63.09;102193.78;2538052;22;2739791;-84
2023/01/27 02:44:03;;;;;;;;;5.67;5.00;;;;;7.16;62.89;102190.25;2534607;22;2746576;-84
2023/01/27 02:45:16;;;;;;;;;8.67;3.33;;;;;7.16;62.70;102194.63;2551357;22;2752889;-83
2023/01/27 02:46:38;;;;;;;;;3.67;3.67;;;;;7.14;62.91;102189.38;2529661;22;2735629;-83
2023/01/27 02:47:52;;;;;;;;;3.50;3.50;;;;;7.16;63.07;102190.25;2558367;22;2747104;-83
2023/01/27 02:49:08;;;;;;;;;5.00;3.67;;;;;7.16;63.22;102195.47;2545394;22;2739796;-83
2023/01/27 02:50:31;;;;;;;;;4.17;2.00;;;;;7.15;62.61;102188.53;2547712;22;2749224;-83
2023/01/27 02:51:46;;;;;;;;;4.83;3.00;;;;;7.16;62.69;102195.47;2546153;22;2735609;-84
2023/01/27 02:53:13;;;;;;;;;3.17;3.00;;;;;7.16;62.59;102192.00;2535142;22;2737701;-83
2023/01/27 02:54:42;;;;;;;;;4.83;3.17;;;;;7.17;63.44;102189.41;2535067;22;2746058;-83
2023/01/27 02:55:55;;;;;;;;;4.83;4.50;;;;;7.18;62.67;102192.91;2538150;22;2748149;-83
2023/01/27 02:57:08;;;;;;;;;6.17;3.67;;;;;7.15;63.01;102183.28;2547306;22;2743950;-83
2023/01/27 02:58:29;;;;;;;;;5.83;3.50;;;;;7.16;63.00;102182.41;2516271;22;2731499;-83
2023/01/27 02:59:45;;;;;;;;;7.17;4.67;;;;;7.16;62.80;102185.03;2549097;22;2746068;-84
2023/01/27 03:01:03;;;;;;;;;4.00;4.00;;;;;7.17;62.87;102185.91;2545256;22;2742924;-83
2023/01/27 03:02:29;;;;;;;;;4.50;3.17;;;;;7.17;62.42;102192.00;2548194;22;2741885;-83
2023/01/27 03:03:45;;;;;;;;;4.67;3.83;;;;;7.16;62.47;102190.25;2545316;22;2739820;-84
2023/01/27 03:04:59;;;;;;;;;6.83;5.83;;;;;7.14;62.44;102192.00;2548153;22;2745003;-83
2023/01/27 03:07:53;;;;;;;;;5.17;5.17;;;;;7.14;62.56;102184.16;2546511;22;2748125;-83
2023/01/27 03:09:08;;;;;;;;;6.67;5.00;;;;;7.11;62.08;102178.91;2558379;22;2748136;-83
2023/01/27 03:13:03;;;;;;;;;6.17;5.67;;;;;7.13;62.07;102182.41;2506403;22;2739886;-83
2023/01/27 03:18:14;;;;;;;;;5.33;4.33;;;;;7.13;61.90;102185.03;2557962;22;2749197;-84
2023/01/27 03:19:29;;;;;;;;;9.67;7.50;;;;;7.13;62.26;102189.38;2544924;22;2731473;-83
2023/01/27 03:21:05;;;;;;;;;2.50;2.50;;;;;7.08;62.25;102173.66;2535681;22;2741895;-84
2023/01/27 03:22:37;;;;;;;;;5.67;4.83;;;;;7.11;62.48;102184.16;2527067;22;2739807;-84
2023/01/27 03:23:50;;;;;;;;;8.33;6.67;;;;;7.12;62.54;102183.28;2532112;22;2746576;-83
2023/01/27 03:25:25;;;;;;;;;6.67;5.83;;;;;7.11;61.76;102176.31;2548031;22;2729419;-83
2023/01/27 03:26:38;;;;;;;;;9.33;5.67;;;;;7.10;62.02;102169.31;2542215;22;2742893;-83
2023/01/27 03:28:41;;;;;;;;;7.00;5.83;;;;;7.09;61.85;102176.28;2534190;22;2746100;-84
2023/01/27 03:30:08;;;;;;;;;8.50;6.67;;;;;7.08;62.20;102176.28;2524252;22;2745011;-84
2023/01/27 03:31:21;;;;;;;;;6.50;5.00;;;;;7.11;62.10;102184.16;2558510;22;2745028;-84
2023/01/27 03:32:37;;;;;;;;;8.00;5.00;;;;;7.08;62.04;102185.00;2557656;22;2757522;-83
2023/01/27 03:33:53;;;;;;;;;4.17;4.17;;;;;7.08;62.18;102171.94;2557719;22;2749166;-83
2023/01/27 03:35:06;;;;;;;;;7.33;5.83;;;;;7.09;61.76;102173.66;2544347;22;2750736;-84
2023/01/27 03:47:27;;;;;;;;;5.67;4.00;;;;;7.02;61.34;102181.47;2558612;22;2752295;-83
2023/01/27 03:48:40;;;;;;;;;3.17;3.17;;;;;7.00;61.88;102178.84;2559024;22;2737720;-83
2023/01/27 03:50:09;;;;;;;;;5.67;3.33;;;;;7.00;61.99;102176.25;2545271;22;2746080;-84
2023/01/27 03:51:32;;;;;;;;;5.00;4.00;;;;;7.03;62.14;102180.63;2551250;22;2754894;-84
2023/01/27 03:53:01;;;;;;;;;3.83;3.17;;;;;7.06;61.91;102178.88;2558968;22;2741871;-83
2023/01/27 03:54:12;;;;;;;;;5.33;4.00;;;;;7.05;61.94;102176.25;2510800;22;3462716;-84
2023/01/27 03:55:32;;;;;;;;;7.25;6.00;;;;;7.08;61.99;102181.50;2545777;22;2746049;-84
2023/01/27 03:56:55;;;;;;;;;3.50;3.50;;;;;7.04;62.04;102170.16;2544000;22;2741879;-83
2023/01/27 03:58:18;;;;;;;;;3.50;3.00;;;;;7.04;61.97;102177.13;2550177;22;2732497;-83
2023/01/27 03:59:31;;;;;;;;;5.33;3.83;;;;;7.02;61.58;102179.72;2539255;22;2748128;-83
2023/01/27 04:00:52;;;;;;;;;4.50;3.83;;;;;7.02;61.64;102179.72;2547121;22;2740872;-83
2023/01/27 04:07:12;;;;;;;;;5.67;3.50;;;;;6.97;61.93;102186.66;2558102;22;2754411;-84
2023/01/27 04:08:33;;;;;;;;;4.33;3.33;;;;;6.95;61.56;102181.44;2558615;22;2747099;-83
2023/01/27 04:09:50;;;;;;;;;8.83;4.67;;;;;6.95;61.77;102193.63;2557991;22;2752771;-86
2023/01/27 04:14:53;;;;;;;;;;;;;;;;;;;;;
2023/01/27 04:16:38;;;;;;;;;2.17;2.17;;;;;6.90;62.31;102184.88;2526672;22;2746061;-84
2023/01/27 04:18:51;;;;;;;;;;;;;;;;;;;;;
2023/01/27 04:20:18;;;;;;;;;;;;;;;;;;;;;
2023/01/27 04:25:03;;;;;;;;;6.00;2.50;;;;;6.85;62.74;102167.44;2518181;22;2750788;-84
2023/01/27 04:27:04;;;;;;;;;3.83;2.50;;;;;6.87;62.91;102164.84;2470033;23;2751243;-84
2023/01/27 04:29:11;;;;;;;;;;;;;;;;;;;;;
2023/01/27 04:31:03;;;;;;;;;6.17;4.50;;;;;6.91;62.80;102169.22;2480481;23;2744030;-84
2023/01/27 04:32:22;;;;;;;;;9.00;3.50;;;;;6.91;62.63;102171.84;2481548;23;2750726;-84
2023/01/27 04:34:23;;;;;;;;;;;;;;;;;;;;;
2023/01/27 04:36:25;;;;;;;;;;;;;;;;;;;;;
2023/01/27 04:38:31;;;;;;;;;;;;;;;;;;;;;
2023/01/27 04:39:47;;;;;;;;;6.00;3.83;;;;;6.96;63.36;102174.47;2483367;23;2748177;-84
2023/01/27 04:41:18;;;;;;;;;;;;;;;;;;;;;
2023/01/27 04:42:32;;;;;;;;;1.00;1.00;;;;;6.93;63.11;102177.94;2494986;23;2720033;-85
2023/01/27 04:43:45;;;;;;;;;13.33;9.00;;;;;6.92;63.23;102168.34;2460190;23;2752435;-84
2023/01/27 04:47:10;;;;;;;;;4.00;4.00;;;;;6.97;62.72;102173.59;2454396;23;2752387;-84
2023/01/27 04:49:19;;;;;;;;;;;;;;;;;;;;;
2023/01/27 04:50:31;;;;;;;;;20.50;16.75;;;;;6.93;62.90;102164.88;2486340;22;1853398;-82
2023/01/27 04:51:44;;;;;;;;;6.67;4.17;;;;;6.95;62.42;102170.09;2553041;22;2741887;-83
2023/01/27 04:53:00;;;;;;;;;6.67;6.17;;;;;6.93;62.79;102166.63;2517025;22;2743978;-83
2023/01/27 04:54:13;;;;;;;;;5.33;3.67;;;;;6.93;62.84;102167.50;2547426;22;2750227;-84
2023/01/27 04:57:45;;;;;;;;;;;;;;;;;;;;;
2023/01/27 05:00:46;;;;;;;;;3.50;3.33;;;;;6.98;62.24;102159.69;2540983;22;2738209;-83
2023/01/27 05:04:52;;;;;;;;;19.67;14.67;;;;;7.00;62.59;102157.94;2483309;22;3559579;-84
2023/01/27 05:06:34;;;;;;;;;2.17;2.17;;;;;7.03;63.08;102164.94;2553288;22;2742953;-84
2023/01/27 05:08:00;;;;;;;;;;;;;;;;;;;;;
2023/01/27 05:09:23;;;;;;;;;4.17;4.17;;;;;7.04;62.43;102164.03;2547975;22;2739815;-84
2023/01/27 05:10:43;;;;;;;;;9.33;6.00;;;;;7.03;61.86;102154.47;2557173;22;2753337;-84
2023/01/27 05:12:23;;;;;;;;;;;;;;;;;;;;;
2023/01/27 05:13:37;;;;;;;;;12.25;12.25;;;;;7.02;61.91;102157.94;2533716;22;1856512;-84
2023/01/27 05:17:48;;;;;;;;;;;;;;;;;;;;;
2023/01/27 05:21:31;;;;;;;;;6.33;5.83;;;;;7.03;62.01;102147.50;2499851;22;2737085;-84
2023/01/27 05:23:35;;;;;;;;;7.67;6.50;;;;;7.06;62.22;102146.66;2545591;22;2734113;-84
2023/01/27 05:24:51;;;;;;;;;4.17;3.67;;;;;7.04;62.09;102140.50;2544625;22;2750223;-84
2023/01/27 05:26:08;;;;;;;;;2.00;2.00;;;;;7.05;61.83;102145.75;2503927;22;2733581;-83
2023/01/27 05:27:42;;;;;;;;;5.50;4.50;;;;;7.04;61.65;102149.22;2531430;22;2749195;-84
2023/01/27 05:29:12;;;;;;;;;4.67;3.50;;;;;7.06;61.99;102157.94;2524941;22;2754422;-84
2023/01/27 05:30:25;;;;;;;;;3.17;2.50;;;;;7.04;61.21;102154.47;2525899;22;2741904;-83
2023/01/27 05:31:46;;;;;;;;;4.83;3.67;;;;;7.03;61.65;102146.63;2534087;22;2737717;-84
2023/01/27 05:33:33;;;;;;;;;7.50;7.17;;;;;7.02;61.92;102150.09;2544227;22;2741906;-83
2023/01/27 05:35:09;;;;;;;;;5.67;4.00;;;;;7.01;61.71;102149.25;2535012;22;2750252;-84
2023/01/27 05:36:23;;;;;;;;;8.83;7.17;;;;;7.02;62.08;102161.44;2515401;22;2735637;-83
2023/01/27 05:37:49;;;;;;;;;;;;;;;;;;;;;
2023/01/27 05:39:02;;;;;;;;;4.33;4.33;;;;;7.05;61.58;102156.22;2534150;22;2735629;-84
2023/01/27 05:41:29;;;;;;;;;;;;;;;;;;;;;
2023/01/27 05:42:59;;;;;;;;;7.00;6.00;;;;;7.04;61.16;102149.22;2519678;22;2742951;-84
2023/01/27 05:44:36;;;;;;;;;4.17;3.33;;;;;7.10;61.67;102169.31;2496972;22;2729435;-84
2023/01/27 05:46:37;;;;;;;;;5.67;2.83;;;;;7.11;61.86;102164.97;2544898;22;2745000;-84
2023/01/27 05:48:33;;;;;;;;;2.17;1.00;;;;;7.11;61.19;102165.84;2532326;22;2731491;-84
2023/01/27 05:50:20;;;;;;;;;5.00;4.50;;;;;7.12;61.84;102157.13;2543938;22;2754363;-84
2023/01/27 05:51:38;;;;;;;;;6.83;6.83;;;;;7.17;61.81;102167.59;2538492;22;2736718;-84
2023/01/27 05:53:23;;;;;;;;;5.17;3.50;;;;;7.15;61.22;102164.97;2544711;22;2750199;-84
2023/01/27 05:55:09;;;;;;;;;4.17;2.00;;;;;7.14;61.50;102160.59;2494981;23;2748149;-84
2023/01/27 05:56:42;;;;;;;;;4.50;3.50;;;;;7.12;61.37;102154.50;2524129;22;2739880;-84
2023/01/27 05:58:32;;;;;;;;;3.67;3.00;;;;;7.15;61.60;102161.50;2538421;22;2729407;-84
2023/01/27 06:00:03;;;;;;;;;3.50;3.33;;;;;7.13;61.37;102158.88;2542750;22;2741911;-84
2023/01/27 06:01:33;;;;;;;;;3.83;1.83;;;;;7.14;61.60;102162.34;2537832;22;2748172;-84
2023/01/27 06:02:51;;;;;;;;;4.00;3.50;;;;;7.12;61.29;102159.72;2538273;22;2741890;-83
2023/01/27 06:04:05;;;;;;;;;7.17;2.50;;;;;7.12;60.89;102157.13;2536077;22;2742952;-84
2023/01/27 06:05:30;;;;;;;;;4.00;3.83;;;;;7.12;61.19;102159.72;2534561;22;2738762;-84
2023/01/27 06:06:59;;;;;;;;;5.50;4.67;;;;;7.12;61.34;102157.13;2516078;22;2747110;-83
2023/01/27 06:08:29;;;;;;;;;4.00;3.00;;;;;7.12;61.04;102167.56;2545476;22;2750197;-84
2023/01/27 06:09:42;;;;;;;;;5.33;3.50;;;;;7.12;61.40;102172.81;2543442;22;2738772;-83
2023/01/27 06:10:57;;;;;;;;;2.83;2.83;;;;;7.08;61.32;102171.94;2545129;22;2733565;-84
2023/01/27 06:12:10;;;;;;;;;5.50;4.00;;;;;7.09;61.15;102167.56;2545889;22;2748167;-84
2023/01/27 06:13:26;;;;;;;;;3.50;2.33;;;;;7.10;60.70;102171.94;2515274;22;2746073;-83
2023/01/27 06:14:52;;;;;;;;;;;;;;;;;;;;;
2023/01/27 06:16:11;;;;;;;;;4.67;3.00;;;;;7.08;61.20;102176.28;2544205;22;2741910;-83
2023/01/27 06:17:32;;;;;;;;;6.67;3.00;;;;;7.06;61.70;102167.56;2529893;22;2737773;-83
2023/01/27 06:18:47;;;;;;;;;3.00;2.50;;;;;7.10;61.61;102177.16;2544828;22;2746070;-83
2023/01/27 06:20:08;;;;;;;;;5.33;3.33;;;;;7.09;61.21;102180.63;2547324;22;2741860;-84
2023/01/27 06:21:21;;;;;;;;;6.50;2.83;;;;;7.10;60.67;102166.69;2544728;22;2743942;-83
2023/01/27 06:22:39;;;;;;;;;5.33;3.83;;;;;7.07;61.16;102164.06;2533297;22;2752332;-84
2023/01/27 06:26:50;;;;;;;;;4.33;3.00;;;;;7.06;61.11;102172.78;2500479;22;2745350;-85
2023/01/27 06:28:04;;;;;;;;;4.00;3.00;;;;;7.04;61.01;102167.53;2506865;22;2740889;-83
2023/01/27 06:29:27;;;;;;;;;3.17;1.83;;;;;7.04;61.51;102167.53;2508375;22;2734604;-83
2023/01/27 06:31:04;;;;;;;;;2.67;2.67;;;;;7.03;61.45;102162.31;2525835;22;2741867;-84
2023/01/27 06:32:42;;;;;;;;;3.50;3.00;;;;;7.08;61.12;102165.81;2510583;22;2741886;-83
2023/01/27 06:34:08;;;;;;;;;;;;;;;;;;;;;
2023/01/27 06:35:24;;;;;;;;;3.17;3.17;;;;;7.12;60.86;102169.31;2547514;22;2739803;-83
2023/01/27 06:36:42;;;;;;;;;5.17;3.83;;;;;7.13;60.52;102174.56;2544371;22;2748141;-84
2023/01/27 06:38:13;;;;;;;;;;;;;;;;;;;;;
2023/01/27 06:39:28;;;;;;;;;4.17;3.17;;;;;7.09;61.45;102167.56;2548018;22;2743981;-83
2023/01/27 06:40:42;;;;;;;;;6.50;3.33;;;;;7.11;61.27;102171.09;2557106;22;2750205;-84
2023/01/27 06:41:58;;;;;;;;;6.83;3.00;;;;;7.12;60.88;102171.94;2544527;22;2744344;-83
2023/01/27 06:43:37;;;;;;;;;6.67;3.33;;;;;7.11;60.36;102172.81;2534873;22;2741900;-84
2023/01/27 06:45:00;;;;;;;;;6.17;3.50;;;;;7.09;60.95;102178.91;2552576;22;2750625;-84
2023/01/27 06:48:12;;;;;;;;;5.17;3.00;;;;;7.07;60.34;102179.75;2504302;22;2737725;-83
2023/01/27 06:49:26;;;;;;;;;4.50;4.00;;;;;7.05;60.41;102169.31;2558533;22;2746108;-83
2023/01/27 06:50:41;;;;;;;;;5.33;3.33;;;;;7.05;60.43;102168.41;2557336;22;2752315;-84
2023/01/27 06:52:01;;;;;;;;;4.00;4.00;;;;;7.06;60.91;102172.78;2558063;22;2748161;-84
2023/01/27 06:53:14;;;;;;;;;4.83;3.00;;;;;7.04;59.97;102169.28;2557822;22;2742948;-83
2023/01/27 06:54:44;;;;;;;;;4.33;4.00;;;;;7.05;60.66;102168.41;2528422;22;2754394;-84
2023/01/27 06:55:59;;;;;;;;;4.50;3.33;;;;;7.04;60.47;102171.88;2514571;22;2740814;-83
2023/01/27 06:59:39;;;;;;;;;4.17;3.17;;;;;7.02;60.83;102166.66;2498974;22;2746541;-84
2023/01/27 07:01:03;;;;;;;;;4.83;3.17;;;;;7.03;60.97;102167.53;2545101;22;2743977;-83
2023/01/27 07:02:56;;;;;;;;;;;;;;;;;;;;;
2023/01/27 07:04:18;;;;;;;;;5.50;4.83;;;;;7.04;60.65;102180.59;2516519;22;2748141;-84
2023/01/27 07:05:57;;;;;;;;;4.17;4.17;;;;;7.03;60.80;102178.88;2518792;22;2745032;-83
2023/01/27 07:07:37;;;;;;;;;5.33;4.00;;;;;6.99;60.76;102179.72;2558305;22;2754390;-85
2023/01/27 07:09:35;;;;;;;;;4.50;4.50;;;;;6.96;60.50;102177.94;2493009;22;2743976;-84
2023/01/27 07:10:33;;;;;;;;;4.33;4.00;;;;;6.98;60.50;102175.38;2540031;22;2752323;-85
2023/01/27 07:12:38;;;;;;;;;;;;;;;;;;;;;
2023/01/27 07:15:10;;;;;;;;;;;;;;;;;;;;;
2023/01/27 07:21:07;;;;;;;;;5.17;4.33;;;;;7.00;61.52;102180.59;2457291;23;2754379;-84
2023/01/27 07:22:40;;;;;;;;;5.00;3.17;;;;;7.02;61.38;102195.41;2454953;23;2746051;-84
2023/01/27 07:26:46;;;;;;;;;4.83;4.00;;;;;7.00;61.18;102199.78;2449185;23;2752312;-85
2023/01/27 07:28:55;;;;;;;;;;;;;;;;;;;;;
2023/01/27 07:35:03;;;;;;;;;8.17;6.00;;;;;6.98;60.74;102199.78;2374514;24;2746051;-85
2023/01/27 07:44:09;;;;;;;;;5.67;5.00;;;;;6.97;60.09;102213.69;2238435;25;3459081;-85
2023/01/27 07:50:51;;;;;;;;;;;;;;;;;;;;;
2023/01/27 08:07:38;;;;;;;;;7.83;7.83;;;;;7.05;60.48;102233.78;2042266;27;2736684;-85
2023/01/27 08:09:04;;;;;;;;;;;;;;;;;;;;;
2023/01/27 08:10:40;;;;;;;;;8.67;5.67;;;;;7.06;60.94;102235.53;2038801;27;2749324;-85
2023/01/27 08:12:24;;;;;;;;;;;;;;;;;;;;;
2023/01/27 08:13:35;;;;;;;;;10.00;7.00;;;;;7.09;60.51;102240.78;2032624;27;2749259;-85
2023/01/27 08:15:48;;;;;;;;;12.00;8.67;;;;;7.09;60.69;102238.16;2043192;27;2764935;-85
2023/01/27 08:17:02;;;;;;;;;6.67;6.67;;;;;7.10;60.46;102239.91;2067375;27;2729433;-85
2023/01/27 08:18:28;;;;;;;;;6.83;6.50;;;;;7.12;60.84;102240.78;2071787;27;2743009;-85
2023/01/27 08:19:44;;;;;;;;;8.00;6.50;;;;;7.09;60.53;102243.38;2066947;27;2739378;-84
2023/01/27 08:21:14;;;;;;;;;;;;;;;;;;;;;
2023/01/27 08:22:37;;;;;;;;;8.00;7.33;;;;;7.11;60.27;102241.69;2051181;27;1841946;-85
2023/01/27 08:24:28;;;;;;;;;;;;;;;;;;;;;
2023/01/27 08:26:06;;;;;;;;;6.00;6.00;;;;;7.14;60.21;102243.41;2062952;27;2741916;-85
2023/01/27 08:27:45;;;;;;;;;11.33;7.00;;;;;7.11;60.00;102233.84;2031072;27;3464819;-85
2023/01/27 08:33:38;;;;;;;;;7.17;6.67;;;;;7.05;60.30;102242.50;1992054;28;2743018;-85
2023/01/27 08:35:40;;;;;;;;;9.50;5.00;;;;;7.05;60.17;102244.25;2011064;28;2755485;-85
2023/01/27 08:38:57;;;;;;;;;6.67;6.17;;;;;7.08;59.61;102255.59;2016333;28;2740419;-85
2023/01/27 08:43:16;;;;;;;;;;;;;;;;;;;;;
2023/01/27 08:45:12;;;;;;;;;9.67;8.00;;;;;7.09;60.08;102254.72;1992832;28;2759721;-85
2023/01/27 08:47:46;;;;;;;;;;;;;;;;;;;;;
2023/01/27 08:49:34;;;;;;;;;11.00;7.67;;;;;7.14;59.66;102259.97;1957919;28;2757658;-86
2023/01/27 08:51:43;;;;;;;;;11.67;9.67;;;;;7.11;60.02;102259.97;1959671;28;3491294;-85
2023/01/27 08:56:05;;;;;;;;;8.33;6.50;;;;;7.10;59.18;102266.06;2009679;28;2749822;-86
2023/01/27 08:58:10;;;;;;;;;8.33;6.33;;;;;7.08;59.74;102262.56;1967377;28;2733599;-86
2023/01/27 09:02:28;;;;;;;;;;;;;;;;;;;;;
2023/01/27 09:09:39;;;;;;;;;;;;;;;;;;;;;
2023/01/27 09:14:22;;;;;;;;;7.83;7.83;;;;;6.98;58.71;102275.59;1953587;29;2736744;-84
2023/01/27 09:16:03;;;;;;;;;8.67;7.33;;;;;6.97;58.53;102267.72;1950078;29;2744052;-86
2023/01/27 09:25:24;;;;;;;;;;;;;;;;;;;;;
2023/01/27 09:27:20;;;;;;;;;6.67;5.17;;;;;6.97;58.27;102276.44;1993318;28;2746129;-85
2023/01/27 09:29:28;;;;;;;;;14.00;7.00;;;;;6.95;59.35;102279.91;1974274;28;3498187;-86
2023/01/27 09:30:39;;;;;;;;;10.33;7.67;;;;;6.95;58.58;102280.78;1982340;28;2752373;-86
2023/01/27 09:37:07;;;;;;;;;7.00;7.00;;;;;6.93;59.12;102287.75;2001442;28;2746128;-86
2023/01/27 09:38:30;;;;;;;;;12.50;7.17;;;;;7.00;59.28;102299.13;1993036;28;2747537;-85
2023/01/27 09:40:33;;;;;;;;;9.33;7.67;;;;;6.97;59.09;102292.13;1940384;28;3451286;-86
2023/01/27 09:42:37;;;;;;;;;7.33;6.00;;;;;6.95;58.56;102288.63;1958489;29;2737770;-86
2023/01/27 09:47:11;;;;;;;;;;;;;;;;;;;;;
2023/01/27 09:50:45;;;;;;;;;10.00;7.00;;;;;6.92;58.28;102290.31;1938512;29;2747237;-85
2023/01/27 09:55:17;;;;;;;;;;;;;;;;;;;;;
2023/01/27 10:01:15;;;;;;;;;;;;;;;;;;;;;
2023/01/27 10:07:21;;;;;;;;;11.00;9.33;;;;;6.93;58.94;102294.72;1934524;29;3491955;-85
2023/01/27 10:09:12;;;;;;;;;14.50;14.00;;;;;6.94;59.55;102294.72;1936792;29;2791040;-84